sensor_id;sensor_type;location;lat;lon;timestamp;P1;durP1;ratioP1;P2;durP2;ratioP2
13291;SDS011;6714;53.056;8.690;2024-01-30T00:01:28;14.60;;;12.63;;
13291;SDS011;6714;53.056;8.690;2024-01-30T00:04:10;15.93;;;12.53;;
13291;SDS011;6714;53.056;8.690;2024-01-30T00:06:52;15.23;;;12.40;;
13291;SDS011;6714;53.056;8.690;2024-01-30T00:09:34;14.07;;;12.13;;
13291;SDS011;6714;53.056;8.690;2024-01-30T00:12:18;13.23;;;11.53;;
13291;SDS011;6714;53.056;8.690;2024-01-30T00:15:01;14.97;;;12.00;;
13291;SDS011;6714;53.056;8.690;2024-01-30T00:17:44;14.50;;;11.53;;
13291;SDS011;6714;53.056;8.690;2024-01-30T00:20:26;15.40;;;11.63;;
13291;SDS011;6714;53.056;8.690;2024-01-30T00:23:09;12.90;;;11.43;;
13291;SDS011;6714;53.056;8.690;2024-01-30T00:25:51;12.77;;;11.23;;
13291;SDS011;6714;53.056;8.690;2024-01-30T00:28:35;14.30;;;12.70;;
13291;SDS011;6714;53.056;8.690;2024-01-30T00:31:17;12.63;;;11.33;;
13291;SDS011;6714;53.056;8.690;2024-01-30T00:33:59;17.17;;;11.80;;
13291;SDS011;6714;53.056;8.690;2024-01-30T00:36:41;14.00;;;10.97;;
13291;SDS011;6714;53.056;8.690;2024-01-30T00:39:24;12.87;;;11.40;;
13291;SDS011;6714;53.056;8.690;2024-01-30T00:42:06;12.67;;;11.27;;
13291;SDS011;6714;53.056;8.690;2024-01-30T00:44:50;14.73;;;11.77;;
13291;SDS011;6714;53.056;8.690;2024-01-30T00:47:32;14.10;;;11.60;;
13291;SDS011;6714;53.056;8.690;2024-01-30T00:50:14;15.67;;;12.30;;
13291;SDS011;6714;53.056;8.690;2024-01-30T00:52:56;12.37;;;10.53;;
13291;SDS011;6714;53.056;8.690;2024-01-30T00:55:39;14.73;;;11.87;;
13291;SDS011;6714;53.056;8.690;2024-01-30T00:58:21;13.40;;;11.70;;
13291;SDS011;6714;53.056;8.690;2024-01-30T01:01:05;14.90;;;12.03;;
13291;SDS011;6714;53.056;8.690;2024-01-30T01:03:47;14.00;;;10.90;;
13291;SDS011;6714;53.056;8.690;2024-01-30T01:06:29;13.93;;;11.93;;
13291;SDS011;6714;53.056;8.690;2024-01-30T01:09:12;13.53;;;11.80;;
13291;SDS011;6714;53.056;8.690;2024-01-30T01:11:54;14.53;;;11.53;;
13291;SDS011;6714;53.056;8.690;2024-01-30T01:14:36;13.93;;;11.23;;
13291;SDS011;6714;53.056;8.690;2024-01-30T01:17:20;13.37;;;11.40;;
13291;SDS011;6714;53.056;8.690;2024-01-30T01:20:02;13.67;;;11.73;;
13291;SDS011;6714;53.056;8.690;2024-01-30T01:22:45;13.27;;;11.30;;
13291;SDS011;6714;53.056;8.690;2024-01-30T01:25:27;13.23;;;11.20;;
13291;SDS011;6714;53.056;8.690;2024-01-30T01:28:09;14.50;;;11.63;;
13291;SDS011;6714;53.056;8.690;2024-01-30T01:30:52;14.57;;;12.27;;
13291;SDS011;6714;53.056;8.690;2024-01-30T01:33:40;13.63;;;11.77;;
13291;SDS011;6714;53.056;8.690;2024-01-30T01:36:22;12.50;;;11.03;;
13291;SDS011;6714;53.056;8.690;2024-01-30T01:39:05;14.47;;;11.93;;
13291;SDS011;6714;53.056;8.690;2024-01-30T01:41:48;14.50;;;11.93;;
13291;SDS011;6714;53.056;8.690;2024-01-30T01:44:30;13.80;;;11.60;;
13291;SDS011;6714;53.056;8.690;2024-01-30T01:47:13;17.33;;;11.93;;
13291;SDS011;6714;53.056;8.690;2024-01-30T01:49:56;14.17;;;11.83;;
13291;SDS011;6714;53.056;8.690;2024-01-30T01:52:39;13.67;;;12.03;;
13291;SDS011;6714;53.056;8.690;2024-01-30T01:55:22;14.30;;;11.83;;
13291;SDS011;6714;53.056;8.690;2024-01-30T01:58:06;14.43;;;11.50;;
13291;SDS011;6714;53.056;8.690;2024-01-30T02:00:50;15.60;;;11.87;;
13291;SDS011;6714;53.056;8.690;2024-01-30T02:03:32;13.50;;;11.23;;
13291;SDS011;6714;53.056;8.690;2024-01-30T02:06:17;13.30;;;11.87;;
13291;SDS011;6714;53.056;8.690;2024-01-30T02:08:59;13.87;;;11.80;;
13291;SDS011;6714;53.056;8.690;2024-01-30T02:11:41;14.20;;;11.17;;
13291;SDS011;6714;53.056;8.690;2024-01-30T02:14:24;13.77;;;12.00;;
13291;SDS011;6714;53.056;8.690;2024-01-30T02:17:06;13.57;;;11.90;;
13291;SDS011;6714;53.056;8.690;2024-01-30T02:19:48;13.83;;;11.87;;
13291;SDS011;6714;53.056;8.690;2024-01-30T02:22:32;16.03;;;11.47;;
13291;SDS011;6714;53.056;8.690;2024-01-30T02:25:16;14.20;;;11.90;;
13291;SDS011;6714;53.056;8.690;2024-01-30T02:27:58;12.97;;;11.47;;
13291;SDS011;6714;53.056;8.690;2024-01-30T02:30:42;15.30;;;11.30;;
13291;SDS011;6714;53.056;8.690;2024-01-30T02:33:24;14.47;;;11.10;;
13291;SDS011;6714;53.056;8.690;2024-01-30T02:36:07;13.00;;;11.53;;
13291;SDS011;6714;53.056;8.690;2024-01-30T02:38:50;13.43;;;11.83;;
13291;SDS011;6714;53.056;8.690;2024-01-30T02:41:32;13.83;;;12.13;;
13291;SDS011;6714;53.056;8.690;2024-01-30T02:44:15;13.47;;;11.63;;
13291;SDS011;6714;53.056;8.690;2024-01-30T02:46:57;14.63;;;12.10;;
13291;SDS011;6714;53.056;8.690;2024-01-30T02:49:39;13.47;;;11.33;;
13291;SDS011;6714;53.056;8.690;2024-01-30T02:52:21;13.70;;;11.40;;
13291;SDS011;6714;53.056;8.690;2024-01-30T02:55:05;14.03;;;11.77;;
13291;SDS011;6714;53.056;8.690;2024-01-30T02:57:48;15.43;;;10.93;;
13291;SDS011;6714;53.056;8.690;2024-01-30T03:00:30;14.27;;;10.83;;
13291;SDS011;6714;53.056;8.690;2024-01-30T03:03:12;15.07;;;12.50;;
13291;SDS011;6714;53.056;8.690;2024-01-30T03:05:54;12.07;;;10.77;;
13291;SDS011;6714;53.056;8.690;2024-01-30T03:08:36;13.87;;;11.20;;
13291;SDS011;6714;53.056;8.690;2024-01-30T03:11:20;13.37;;;11.97;;
13291;SDS011;6714;53.056;8.690;2024-01-30T03:14:02;15.83;;;12.33;;
13291;SDS011;6714;53.056;8.690;2024-01-30T03:16:45;13.13;;;11.47;;
13291;SDS011;6714;53.056;8.690;2024-01-30T03:19:27;15.07;;;12.17;;
13291;SDS011;6714;53.056;8.690;2024-01-30T03:22:09;13.40;;;11.60;;
13291;SDS011;6714;53.056;8.690;2024-01-30T03:24:52;13.13;;;11.10;;
13291;SDS011;6714;53.056;8.690;2024-01-30T03:27:35;15.13;;;12.43;;
13291;SDS011;6714;53.056;8.690;2024-01-30T03:30:18;14.20;;;11.27;;
13291;SDS011;6714;53.056;8.690;2024-01-30T03:33:00;13.80;;;12.13;;
13291;SDS011;6714;53.056;8.690;2024-01-30T03:35:42;14.17;;;11.13;;
13291;SDS011;6714;53.056;8.690;2024-01-30T03:38:25;14.83;;;12.20;;
13291;SDS011;6714;53.056;8.690;2024-01-30T03:41:07;13.43;;;11.63;;
13291;SDS011;6714;53.056;8.690;2024-01-30T03:43:51;13.97;;;12.00;;
13291;SDS011;6714;53.056;8.690;2024-01-30T03:46:33;15.00;;;11.30;;
13291;SDS011;6714;53.056;8.690;2024-01-30T03:49:15;16.27;;;12.17;;
13291;SDS011;6714;53.056;8.690;2024-01-30T03:51:58;13.73;;;11.83;;
13291;SDS011;6714;53.056;8.690;2024-01-30T03:54:40;12.57;;;10.97;;
13291;SDS011;6714;53.056;8.690;2024-01-30T03:57:22;13.53;;;11.47;;
13291;SDS011;6714;53.056;8.690;2024-01-30T04:00:07;15.13;;;12.40;;
13291;SDS011;6714;53.056;8.690;2024-01-30T04:02:49;14.73;;;11.77;;
13291;SDS011;6714;53.056;8.690;2024-01-30T04:05:32;14.57;;;12.30;;
13291;SDS011;6714;53.056;8.690;2024-01-30T04:08:14;15.13;;;11.67;;
13291;SDS011;6714;53.056;8.690;2024-01-30T04:10:56;16.90;;;13.60;;
13291;SDS011;6714;53.056;8.690;2024-01-30T04:13:39;15.77;;;13.63;;
13291;SDS011;6714;53.056;8.690;2024-01-30T04:16:24;19.90;;;14.43;;
13291;SDS011;6714;53.056;8.690;2024-01-30T04:19:07;18.70;;;13.13;;
13291;SDS011;6714;53.056;8.690;2024-01-30T04:21:49;19.33;;;14.70;;
13291;SDS011;6714;53.056;8.690;2024-01-30T04:24:31;18.77;;;13.90;;
13291;SDS011;6714;53.056;8.690;2024-01-30T04:27:13;16.33;;;12.87;;
13291;SDS011;6714;53.056;8.690;2024-01-30T04:29:56;17.37;;;13.33;;
13291;SDS011;6714;53.056;8.690;2024-01-30T04:32:39;15.70;;;12.97;;
13291;SDS011;6714;53.056;8.690;2024-01-30T04:35:21;16.90;;;13.93;;
13291;SDS011;6714;53.056;8.690;2024-01-30T04:38:05;16.43;;;13.37;;
13291;SDS011;6714;53.056;8.690;2024-01-30T04:40:47;18.77;;;14.67;;
13291;SDS011;6714;53.056;8.690;2024-01-30T04:43:29;17.57;;;14.17;;
13291;SDS011;6714;53.056;8.690;2024-01-30T04:46:11;18.23;;;13.83;;
13291;SDS011;6714;53.056;8.690;2024-01-30T04:48:55;17.03;;;13.13;;
13291;SDS011;6714;53.056;8.690;2024-01-30T04:51:37;17.80;;;14.47;;
13291;SDS011;6714;53.056;8.690;2024-01-30T04:54:20;19.83;;;14.23;;
13291;SDS011;6714;53.056;8.690;2024-01-30T04:57:02;16.40;;;13.97;;
13291;SDS011;6714;53.056;8.690;2024-01-30T04:59:45;16.57;;;13.90;;
13291;SDS011;6714;53.056;8.690;2024-01-30T05:02:28;16.40;;;13.83;;
13291;SDS011;6714;53.056;8.690;2024-01-30T05:05:11;15.80;;;13.33;;
13291;SDS011;6714;53.056;8.690;2024-01-30T05:07:53;16.80;;;13.80;;
13291;SDS011;6714;53.056;8.690;2024-01-30T05:10:36;17.53;;;14.17;;
13291;SDS011;6714;53.056;8.690;2024-01-30T05:13:18;18.30;;;14.20;;
13291;SDS011;6714;53.056;8.690;2024-01-30T05:16:01;16.93;;;14.37;;
13291;SDS011;6714;53.056;8.690;2024-01-30T05:18:46;18.40;;;14.40;;
13291;SDS011;6714;53.056;8.690;2024-01-30T05:21:30;15.90;;;13.63;;
13291;SDS011;6714;53.056;8.690;2024-01-30T05:24:12;15.50;;;13.00;;
13291;SDS011;6714;53.056;8.690;2024-01-30T05:26:55;18.97;;;14.67;;
13291;SDS011;6714;53.056;8.690;2024-01-30T05:29:37;21.10;;;15.57;;
13291;SDS011;6714;53.056;8.690;2024-01-30T05:32:19;16.63;;;14.10;;
13291;SDS011;6714;53.056;8.690;2024-01-30T05:35:02;22.70;;;15.50;;
13291;SDS011;6714;53.056;8.690;2024-01-30T05:37:45;21.70;;;14.63;;
13291;SDS011;6714;53.056;8.690;2024-01-30T05:40:28;20.30;;;15.70;;
13291;SDS011;6714;53.056;8.690;2024-01-30T05:43:10;20.03;;;15.33;;
13291;SDS011;6714;53.056;8.690;2024-01-30T05:45:52;21.43;;;15.70;;
13291;SDS011;6714;53.056;8.690;2024-01-30T05:48:34;23.60;;;18.13;;
13291;SDS011;6714;53.056;8.690;2024-01-30T05:51:16;21.70;;;16.93;;
13291;SDS011;6714;53.056;8.690;2024-01-30T05:54:00;19.63;;;15.87;;
13291;SDS011;6714;53.056;8.690;2024-01-30T05:56:43;19.53;;;15.70;;
13291;SDS011;6714;53.056;8.690;2024-01-30T05:59:25;16.33;;;13.50;;
13291;SDS011;6714;53.056;8.690;2024-01-30T06:02:08;19.17;;;14.23;;
13291;SDS011;6714;53.056;8.690;2024-01-30T06:04:50;18.13;;;14.73;;
13291;SDS011;6714;53.056;8.690;2024-01-30T06:07:32;24.03;;;17.40;;
13291;SDS011;6714;53.056;8.690;2024-01-30T06:10:16;18.03;;;14.60;;
13291;SDS011;6714;53.056;8.690;2024-01-30T06:12:58;19.77;;;15.13;;
13291;SDS011;6714;53.056;8.690;2024-01-30T06:15:41;22.40;;;15.77;;
13291;SDS011;6714;53.056;8.690;2024-01-30T06:18:23;17.93;;;14.47;;
13291;SDS011;6714;53.056;8.690;2024-01-30T06:21:07;20.63;;;15.80;;
13291;SDS011;6714;53.056;8.690;2024-01-30T06:23:49;21.67;;;16.60;;
13291;SDS011;6714;53.056;8.690;2024-01-30T06:26:33;23.83;;;17.10;;
13291;SDS011;6714;53.056;8.690;2024-01-30T06:29:16;22.40;;;17.97;;
13291;SDS011;6714;53.056;8.690;2024-01-30T06:31:58;21.30;;;17.43;;
13291;SDS011;6714;53.056;8.690;2024-01-30T06:34:40;23.07;;;18.13;;
13291;SDS011;6714;53.056;8.690;2024-01-30T06:37:24;27.90;;;19.77;;
13291;SDS011;6714;53.056;8.690;2024-01-30T06:40:06;31.93;;;20.10;;
13291;SDS011;6714;53.056;8.690;2024-01-30T06:42:50;27.47;;;20.30;;
13291;SDS011;6714;53.056;8.690;2024-01-30T06:45:32;27.67;;;19.97;;
13291;SDS011;6714;53.056;8.690;2024-01-30T06:48:15;25.17;;;18.77;;
13291;SDS011;6714;53.056;8.690;2024-01-30T06:50:57;34.23;;;23.00;;
13291;SDS011;6714;53.056;8.690;2024-01-30T06:53:40;32.57;;;21.83;;
13291;SDS011;6714;53.056;8.690;2024-01-30T06:56:22;30.90;;;22.53;;
13291;SDS011;6714;53.056;8.690;2024-01-30T06:59:06;30.83;;;22.40;;
13291;SDS011;6714;53.056;8.690;2024-01-30T07:01:49;33.07;;;23.63;;
13291;SDS011;6714;53.056;8.690;2024-01-30T07:04:31;37.63;;;24.17;;
13291;SDS011;6714;53.056;8.690;2024-01-30T07:07:13;38.40;;;24.93;;
13291;SDS011;6714;53.056;8.690;2024-01-30T07:09:56;34.33;;;23.43;;
13291;SDS011;6714;53.056;8.690;2024-01-30T07:12:38;35.40;;;24.03;;
13291;SDS011;6714;53.056;8.690;2024-01-30T07:15:21;36.23;;;24.90;;
13291;SDS011;6714;53.056;8.690;2024-01-30T07:18:04;37.57;;;25.53;;
13291;SDS011;6714;53.056;8.690;2024-01-30T07:20:46;43.53;;;26.70;;
13291;SDS011;6714;53.056;8.690;2024-01-30T07:23:29;37.87;;;24.70;;
13291;SDS011;6714;53.056;8.690;2024-01-30T07:26:12;42.20;;;27.13;;
13291;SDS011;6714;53.056;8.690;2024-01-30T07:28:54;41.47;;;26.70;;
13291;SDS011;6714;53.056;8.690;2024-01-30T07:31:38;48.10;;;29.10;;
13291;SDS011;6714;53.056;8.690;2024-01-30T07:34:20;43.27;;;28.97;;
13291;SDS011;6714;53.056;8.690;2024-01-30T07:37:03;40.50;;;24.17;;
13291;SDS011;6714;53.056;8.690;2024-01-30T07:39:45;44.73;;;27.77;;
13291;SDS011;6714;53.056;8.690;2024-01-30T07:42:27;40.47;;;26.60;;
13291;SDS011;6714;53.056;8.690;2024-01-30T07:45:10;43.70;;;28.93;;
13291;SDS011;6714;53.056;8.690;2024-01-30T07:47:54;38.93;;;26.07;;
13291;SDS011;6714;53.056;8.690;2024-01-30T07:50:36;44.83;;;27.10;;
13291;SDS011;6714;53.056;8.690;2024-01-30T07:53:18;43.33;;;26.93;;
13291;SDS011;6714;53.056;8.690;2024-01-30T07:56:01;42.63;;;27.70;;
13291;SDS011;6714;53.056;8.690;2024-01-30T07:58:43;43.20;;;29.20;;
13291;SDS011;6714;53.056;8.690;2024-01-30T08:01:26;42.13;;;27.80;;
13291;SDS011;6714;53.056;8.690;2024-01-30T08:04:10;47.77;;;29.43;;
13291;SDS011;6714;53.056;8.690;2024-01-30T08:06:53;42.70;;;28.17;;
13291;SDS011;6714;53.056;8.690;2024-01-30T08:09:35;46.40;;;29.23;;
13291;SDS011;6714;53.056;8.690;2024-01-30T08:12:18;48.27;;;28.80;;
13291;SDS011;6714;53.056;8.690;2024-01-30T08:15:00;49.00;;;28.17;;
13291;SDS011;6714;53.056;8.690;2024-01-30T08:17:43;40.90;;;26.43;;
13291;SDS011;6714;53.056;8.690;2024-01-30T08:20:28;44.50;;;27.77;;
13291;SDS011;6714;53.056;8.690;2024-01-30T08:23:10;47.90;;;28.93;;
13291;SDS011;6714;53.056;8.690;2024-01-30T08:25:52;53.80;;;32.37;;
13291;SDS011;6714;53.056;8.690;2024-01-30T08:28:35;52.87;;;32.63;;
13291;SDS011;6714;53.056;8.690;2024-01-30T08:31:18;61.30;;;33.97;;
13291;SDS011;6714;53.056;8.690;2024-01-30T08:34:00;50.40;;;29.80;;
13291;SDS011;6714;53.056;8.690;2024-01-30T08:36:44;50.17;;;31.40;;
13291;SDS011;6714;53.056;8.690;2024-01-30T08:39:27;56.37;;;33.10;;
13291;SDS011;6714;53.056;8.690;2024-01-30T08:42:10;57.57;;;33.27;;
13291;SDS011;6714;53.056;8.690;2024-01-30T08:44:53;52.07;;;30.90;;
13291;SDS011;6714;53.056;8.690;2024-01-30T08:47:36;55.30;;;31.57;;
13291;SDS011;6714;53.056;8.690;2024-01-30T08:50:18;54.27;;;31.93;;
13291;SDS011;6714;53.056;8.690;2024-01-30T08:53:02;47.90;;;29.17;;
13291;SDS011;6714;53.056;8.690;2024-01-30T08:55:45;40.47;;;27.23;;
13291;SDS011;6714;53.056;8.690;2024-01-30T08:58:27;54.17;;;32.20;;
13291;SDS011;6714;53.056;8.690;2024-01-30T09:01:09;45.53;;;28.23;;
13291;SDS011;6714;53.056;8.690;2024-01-30T09:03:52;51.60;;;31.67;;
13291;SDS011;6714;53.056;8.690;2024-01-30T09:06:34;43.60;;;28.50;;
13291;SDS011;6714;53.056;8.690;2024-01-30T09:09:21;45.97;;;27.80;;
13291;SDS011;6714;53.056;8.690;2024-01-30T09:12:03;44.37;;;26.60;;
13291;SDS011;6714;53.056;8.690;2024-01-30T09:14:48;45.80;;;28.43;;
13291;SDS011;6714;53.056;8.690;2024-01-30T09:17:31;44.80;;;27.60;;
13291;SDS011;6714;53.056;8.690;2024-01-30T09:20:13;39.50;;;26.20;;
13291;SDS011;6714;53.056;8.690;2024-01-30T09:22:55;44.03;;;28.37;;
13291;SDS011;6714;53.056;8.690;2024-01-30T09:25:40;44.30;;;29.47;;
13291;SDS011;6714;53.056;8.690;2024-01-30T09:28:22;45.53;;;28.30;;
13291;SDS011;6714;53.056;8.690;2024-01-30T09:31:09;47.37;;;28.63;;
13291;SDS011;6714;53.056;8.690;2024-01-30T09:33:51;49.90;;;30.13;;
13291;SDS011;6714;53.056;8.690;2024-01-30T09:36:34;48.07;;;29.97;;
13291;SDS011;6714;53.056;8.690;2024-01-30T09:39:16;36.43;;;24.87;;
13291;SDS011;6714;53.056;8.690;2024-01-30T09:42:02;42.57;;;28.20;;
13291;SDS011;6714;53.056;8.690;2024-01-30T09:44:47;43.87;;;28.93;;
13291;SDS011;6714;53.056;8.690;2024-01-30T09:47:33;48.10;;;28.27;;
13291;SDS011;6714;53.056;8.690;2024-01-30T09:50:22;40.90;;;27.83;;
13291;SDS011;6714;53.056;8.690;2024-01-30T09:53:04;39.47;;;25.93;;
13291;SDS011;6714;53.056;8.690;2024-01-30T09:55:49;30.10;;;22.00;;
13291;SDS011;6714;53.056;8.690;2024-01-30T09:58:33;39.20;;;25.20;;
13291;SDS011;6714;53.056;8.690;2024-01-30T10:01:17;35.20;;;23.73;;
13291;SDS011;6714;53.056;8.690;2024-01-30T10:03:59;45.50;;;27.83;;
13291;SDS011;6714;53.056;8.690;2024-01-30T10:06:42;39.33;;;26.20;;
13291;SDS011;6714;53.056;8.690;2024-01-30T10:09:25;37.87;;;26.30;;
13291;SDS011;6714;53.056;8.690;2024-01-30T10:12:08;34.83;;;23.30;;
13291;SDS011;6714;53.056;8.690;2024-01-30T10:14:55;34.43;;;23.40;;
13291;SDS011;6714;53.056;8.690;2024-01-30T10:17:38;35.67;;;24.10;;
13291;SDS011;6714;53.056;8.690;2024-01-30T10:20:20;31.70;;;22.83;;
13291;SDS011;6714;53.056;8.690;2024-01-30T10:23:03;35.20;;;23.83;;
13291;SDS011;6714;53.056;8.690;2024-01-30T10:25:46;35.73;;;22.70;;
13291;SDS011;6714;53.056;8.690;2024-01-30T10:28:29;32.93;;;22.40;;
13291;SDS011;6714;53.056;8.690;2024-01-30T10:31:17;31.73;;;22.20;;
13291;SDS011;6714;53.056;8.690;2024-01-30T10:34:00;30.03;;;22.60;;
13291;SDS011;6714;53.056;8.690;2024-01-30T10:36:43;34.83;;;23.20;;
13291;SDS011;6714;53.056;8.690;2024-01-30T10:39:29;30.03;;;23.43;;
13291;SDS011;6714;53.056;8.690;2024-01-30T10:42:12;35.40;;;23.80;;
13291;SDS011;6714;53.056;8.690;2024-01-30T10:44:56;32.43;;;22.33;;
13291;SDS011;6714;53.056;8.690;2024-01-30T10:47:42;36.10;;;23.07;;
13291;SDS011;6714;53.056;8.690;2024-01-30T10:50:25;33.33;;;23.60;;
13291;SDS011;6714;53.056;8.690;2024-01-30T10:53:08;32.77;;;22.53;;
13291;SDS011;6714;53.056;8.690;2024-01-30T10:55:51;29.53;;;21.37;;
13291;SDS011;6714;53.056;8.690;2024-01-30T10:58:34;26.63;;;18.63;;
13291;SDS011;6714;53.056;8.690;2024-01-30T11:01:17;28.27;;;20.77;;
13291;SDS011;6714;53.056;8.690;2024-01-30T11:04:01;29.03;;;19.63;;
13291;SDS011;6714;53.056;8.690;2024-01-30T11:06:43;27.97;;;19.90;;
13291;SDS011;6714;53.056;8.690;2024-01-30T11:09:25;24.60;;;18.50;;
13291;SDS011;6714;53.056;8.690;2024-01-30T11:12:12;27.10;;;20.13;;
13291;SDS011;6714;53.056;8.690;2024-01-30T11:15:04;22.87;;;16.87;;
13291;SDS011;6714;53.056;8.690;2024-01-30T11:17:50;20.70;;;15.93;;
13291;SDS011;6714;53.056;8.690;2024-01-30T11:20:34;20.77;;;16.80;;
13291;SDS011;6714;53.056;8.690;2024-01-30T11:23:17;20.97;;;14.83;;
13291;SDS011;6714;53.056;8.690;2024-01-30T11:26:00;22.43;;;17.60;;
13291;SDS011;6714;53.056;8.690;2024-01-30T11:28:42;20.63;;;15.67;;
13291;SDS011;6714;53.056;8.690;2024-01-30T11:31:25;20.50;;;15.40;;
13291;SDS011;6714;53.056;8.690;2024-01-30T11:34:08;21.07;;;16.77;;
13291;SDS011;6714;53.056;8.690;2024-01-30T11:36:53;19.10;;;14.53;;
13291;SDS011;6714;53.056;8.690;2024-01-30T11:39:39;17.23;;;14.17;;
13291;SDS011;6714;53.056;8.690;2024-01-30T11:42:23;20.53;;;16.27;;
13291;SDS011;6714;53.056;8.690;2024-01-30T11:45:06;17.03;;;14.30;;
13291;SDS011;6714;53.056;8.690;2024-01-30T11:47:48;16.33;;;13.40;;
13291;SDS011;6714;53.056;8.690;2024-01-30T11:50:31;21.83;;;14.80;;
13291;SDS011;6714;53.056;8.690;2024-01-30T11:53:15;17.90;;;14.40;;
13291;SDS011;6714;53.056;8.690;2024-01-30T11:55:58;15.70;;;12.90;;
13291;SDS011;6714;53.056;8.690;2024-01-30T11:58:42;17.47;;;13.90;;
13291;SDS011;6714;53.056;8.690;2024-01-30T12:01:24;15.80;;;13.00;;
13291;SDS011;6714;53.056;8.690;2024-01-30T12:04:07;15.90;;;11.87;;
13291;SDS011;6714;53.056;8.690;2024-01-30T12:06:50;15.90;;;14.20;;
13291;SDS011;6714;53.056;8.690;2024-01-30T12:09:35;15.27;;;13.00;;
13291;SDS011;6714;53.056;8.690;2024-01-30T12:12:17;19.57;;;13.73;;
13291;SDS011;6714;53.056;8.690;2024-01-30T12:15:00;15.53;;;13.10;;
13291;SDS011;6714;53.056;8.690;2024-01-30T12:17:42;12.47;;;11.17;;
13291;SDS011;6714;53.056;8.690;2024-01-30T12:20:25;17.30;;;14.10;;
13291;SDS011;6714;53.056;8.690;2024-01-30T12:23:07;16.63;;;12.93;;
13291;SDS011;6714;53.056;8.690;2024-01-30T12:25:51;18.67;;;13.50;;
13291;SDS011;6714;53.056;8.690;2024-01-30T12:28:34;14.23;;;12.37;;
13291;SDS011;6714;53.056;8.690;2024-01-30T12:31:16;14.83;;;12.70;;
13291;SDS011;6714;53.056;8.690;2024-01-30T12:33:59;15.53;;;12.00;;
13291;SDS011;6714;53.056;8.690;2024-01-30T12:36:41;13.90;;;10.90;;
13291;SDS011;6714;53.056;8.690;2024-01-30T12:39:24;15.13;;;11.20;;
13291;SDS011;6714;53.056;8.690;2024-01-30T12:42:08;16.63;;;12.43;;
13291;SDS011;6714;53.056;8.690;2024-01-30T12:44:50;17.47;;;12.97;;
13291;SDS011;6714;53.056;8.690;2024-01-30T12:47:33;14.47;;;12.00;;
13291;SDS011;6714;53.056;8.690;2024-01-30T12:50:15;15.13;;;11.97;;
13291;SDS011;6714;53.056;8.690;2024-01-30T12:52:58;13.37;;;10.07;;
13291;SDS011;6714;53.056;8.690;2024-01-30T12:55:41;12.43;;;10.33;;
13291;SDS011;6714;53.056;8.690;2024-01-30T12:58:25;11.73;;;10.13;;
13291;SDS011;6714;53.056;8.690;2024-01-30T13:01:07;12.53;;;10.37;;
13291;SDS011;6714;53.056;8.690;2024-01-30T13:03:49;13.80;;;11.60;;
13291;SDS011;6714;53.056;8.690;2024-01-30T13:06:32;14.73;;;10.80;;
13291;SDS011;6714;53.056;8.690;2024-01-30T13:09:14;12.97;;;11.13;;
13291;SDS011;6714;53.056;8.690;2024-01-30T13:11:56;18.47;;;11.77;;
13291;SDS011;6714;53.056;8.690;2024-01-30T13:14:41;13.10;;;10.20;;
13291;SDS011;6714;53.056;8.690;2024-01-30T13:17:24;14.87;;;10.93;;
13291;SDS011;6714;53.056;8.690;2024-01-30T13:20:06;14.73;;;10.50;;
13291;SDS011;6714;53.056;8.690;2024-01-30T13:22:49;15.50;;;11.10;;
13291;SDS011;6714;53.056;8.690;2024-01-30T13:25:32;15.37;;;11.23;;
13291;SDS011;6714;53.056;8.690;2024-01-30T13:28:14;11.80;;;10.20;;
13291;SDS011;6714;53.056;8.690;2024-01-30T13:30:59;14.27;;;10.43;;
13291;SDS011;6714;53.056;8.690;2024-01-30T13:33:41;12.33;;;9.60;;
13291;SDS011;6714;53.056;8.690;2024-01-30T13:36:23;12.80;;;9.10;;
13291;SDS011;6714;53.056;8.690;2024-01-30T13:39:06;14.13;;;10.67;;
13291;SDS011;6714;53.056;8.690;2024-01-30T13:41:50;16.10;;;11.23;;
13291;SDS011;6714;53.056;8.690;2024-01-30T13:44:33;13.33;;;10.67;;
13291;SDS011;6714;53.056;8.690;2024-01-30T13:47:17;14.13;;;11.00;;
13291;SDS011;6714;53.056;8.690;2024-01-30T13:50:01;11.17;;;9.63;;
13291;SDS011;6714;53.056;8.690;2024-01-30T13:52:44;17.37;;;10.83;;
13291;SDS011;6714;53.056;8.690;2024-01-30T13:55:26;13.57;;;10.50;;
13291;SDS011;6714;53.056;8.690;2024-01-30T13:58:08;18.47;;;13.00;;
13291;SDS011;6714;53.056;8.690;2024-01-30T14:00:51;13.57;;;10.43;;
13291;SDS011;6714;53.056;8.690;2024-01-30T14:03:35;14.93;;;11.47;;
13291;SDS011;6714;53.056;8.690;2024-01-30T14:06:17;16.73;;;12.83;;
13291;SDS011;6714;53.056;8.690;2024-01-30T14:09:00;12.13;;;9.13;;
13291;SDS011;6714;53.056;8.690;2024-01-30T14:11:43;14.17;;;11.23;;
13291;SDS011;6714;53.056;8.690;2024-01-30T14:14:26;15.13;;;11.57;;
13291;SDS011;6714;53.056;8.690;2024-01-30T14:17:08;15.50;;;10.53;;
13291;SDS011;6714;53.056;8.690;2024-01-30T14:19:52;13.73;;;10.67;;
13291;SDS011;6714;53.056;8.690;2024-01-30T14:22:34;13.27;;;10.73;;
13291;SDS011;6714;53.056;8.690;2024-01-30T14:25:17;13.83;;;10.60;;
13291;SDS011;6714;53.056;8.690;2024-01-30T14:27:59;14.83;;;9.93;;
13291;SDS011;6714;53.056;8.690;2024-01-30T14:30:42;12.73;;;10.57;;
13291;SDS011;6714;53.056;8.690;2024-01-30T14:33:25;13.60;;;9.60;;
13291;SDS011;6714;53.056;8.690;2024-01-30T14:36:09;15.37;;;10.10;;
13291;SDS011;6714;53.056;8.690;2024-01-30T14:38:52;11.20;;;9.87;;
13291;SDS011;6714;53.056;8.690;2024-01-30T14:41:35;13.27;;;10.40;;
13291;SDS011;6714;53.056;8.690;2024-01-30T14:44:17;12.50;;;9.20;;
13291;SDS011;6714;53.056;8.690;2024-01-30T14:47:00;10.67;;;9.57;;
13291;SDS011;6714;53.056;8.690;2024-01-30T14:49:42;13.90;;;10.03;;
13291;SDS011;6714;53.056;8.690;2024-01-30T14:52:26;13.97;;;10.33;;
13291;SDS011;6714;53.056;8.690;2024-01-30T14:55:08;12.33;;;8.53;;
13291;SDS011;6714;53.056;8.690;2024-01-30T14:57:51;9.37;;;8.47;;
13291;SDS011;6714;53.056;8.690;2024-01-30T15:00:34;12.60;;;9.23;;
13291;SDS011;6714;53.056;8.690;2024-01-30T15:03:18;14.33;;;9.93;;
13291;SDS011;6714;53.056;8.690;2024-01-30T15:06:00;12.23;;;8.70;;
13291;SDS011;6714;53.056;8.690;2024-01-30T15:08:46;9.77;;;7.17;;
13291;SDS011;6714;53.056;8.690;2024-01-30T15:11:28;9.53;;;7.83;;
13291;SDS011;6714;53.056;8.690;2024-01-30T15:14:12;9.27;;;8.00;;
13291;SDS011;6714;53.056;8.690;2024-01-30T15:16:55;11.23;;;9.13;;
13291;SDS011;6714;53.056;8.690;2024-01-30T15:19:37;10.47;;;8.07;;
13291;SDS011;6714;53.056;8.690;2024-01-30T15:22:20;11.43;;;8.87;;
13291;SDS011;6714;53.056;8.690;2024-01-30T15:25:05;9.40;;;8.47;;
13291;SDS011;6714;53.056;8.690;2024-01-30T15:27:48;8.83;;;7.93;;
13291;SDS011;6714;53.056;8.690;2024-01-30T15:30:31;10.37;;;7.37;;
13291;SDS011;6714;53.056;8.690;2024-01-30T15:33:13;10.87;;;7.70;;
13291;SDS011;6714;53.056;8.690;2024-01-30T15:35:55;7.77;;;6.97;;
13291;SDS011;6714;53.056;8.690;2024-01-30T15:38:38;9.30;;;7.73;;
13291;SDS011;6714;53.056;8.690;2024-01-30T15:41:23;9.50;;;7.13;;
13291;SDS011;6714;53.056;8.690;2024-01-30T15:44:05;10.73;;;8.20;;
13291;SDS011;6714;53.056;8.690;2024-01-30T15:46:48;9.50;;;6.70;;
13291;SDS011;6714;53.056;8.690;2024-01-30T15:49:30;8.50;;;7.63;;
13291;SDS011;6714;53.056;8.690;2024-01-30T15:52:13;9.70;;;8.00;;
13291;SDS011;6714;53.056;8.690;2024-01-30T15:54:57;11.10;;;7.30;;
13291;SDS011;6714;53.056;8.690;2024-01-30T15:57:41;9.77;;;7.80;;
13291;SDS011;6714;53.056;8.690;2024-01-30T16:00:23;9.23;;;8.17;;
13291;SDS011;6714;53.056;8.690;2024-01-30T16:03:06;9.77;;;8.30;;
13291;SDS011;6714;53.056;8.690;2024-01-30T16:05:48;9.30;;;7.83;;
13291;SDS011;6714;53.056;8.690;2024-01-30T16:08:31;10.70;;;7.47;;